Aviation Digital Data Service (ADDS)

Output produced by METARs form (0002 UTC 28 September 2016)
found at http://aviationweather.gov/adds/metars/
 
KCKB 272320Z 2800/2824 VRB03KT P6SM SKC 
     FM282300 12004KT P6SM -SHRA BKN060